createdAt,value
2022-12-31T00:00:35.010Z,2.05
2022-12-31T00:02:36.909Z,1.95
2022-12-31T00:04:38.571Z,2.20
2022-12-31T00:06:40.053Z,1.65
2022-12-31T00:08:41.974Z,2.63
2022-12-31T00:10:43.655Z,2.47
2022-12-31T00:12:45.137Z,2.17
2022-12-31T00:14:52.510Z,2.45
2022-12-31T00:16:54.053Z,2.30
2022-12-31T00:18:59.531Z,3.63
2022-12-31T00:21:07.951Z,1.55
2022-12-31T00:23:10.756Z,1.77
2022-12-31T00:25:12.298Z,2.13
2022-12-31T00:27:13.856Z,1.65
2022-12-31T00:29:21.578Z,1.83
2022-12-31T00:31:30.111Z,2.42
2022-12-31T00:33:38.047Z,1.55
2022-12-31T00:35:39.625Z,1.85
2022-12-31T00:37:41.181Z,3.72
2022-12-31T00:39:45.625Z,2.67
2022-12-31T00:41:50.197Z,1.85
2022-12-31T00:43:51.716Z,2.85
2022-12-31T00:45:59.437Z,2.15
2022-12-31T00:48:07.037Z,3.60
2022-12-31T00:50:08.723Z,2.33
2022-12-31T00:52:15.856Z,1.52
2022-12-31T00:56:26.903Z,1.85
2022-12-31T00:58:28.507Z,1.65
2022-12-31T01:00:30.039Z,2.53
2022-12-31T01:02:34.589Z,1.90
2022-12-31T01:04:36.293Z,1.90
2022-12-31T01:06:44.083Z,1.65
2022-12-31T01:08:49.272Z,1.90
2022-12-31T01:11:09.278Z,2.20
2022-12-31T01:13:10.821Z,2.33
2022-12-31T01:17:19.203Z,1.70
2022-12-31T01:19:28.192Z,1.30
2022-12-31T01:21:33.395Z,1.67
2022-12-31T01:23:37.602Z,1.00
2022-12-31T01:25:45.203Z,1.50
2022-12-31T01:27:46.716Z,1.50
2022-12-31T01:31:52.329Z,2.50
2022-12-31T01:36:01.719Z,1.83
2022-12-31T01:38:06.306Z,1.77
2022-12-31T01:40:07.949Z,2.20
2022-12-31T01:42:12.360Z,1.40
2022-12-31T01:44:25.898Z,1.75
2022-12-31T01:46:33.100Z,1.92
2022-12-31T01:48:37.467Z,1.60
2022-12-31T01:50:40.968Z,1.00
2022-12-31T01:52:44.779Z,2.92
2022-12-31T01:55:02.770Z,1.40
2022-12-31T01:57:11.051Z,1.30
2022-12-31T01:59:13.052Z,1.27
2022-12-31T02:01:23.511Z,1.95
2022-12-31T02:03:35.864Z,1.23
2022-12-31T02:06:01.639Z,0.90
2022-12-31T02:08:11.980Z,1.20
2022-12-31T02:10:19.753Z,1.17
2022-12-31T02:12:24.133Z,1.00
2022-12-31T02:16:49.042Z,1.10
2022-12-31T02:18:59.220Z,1.52
2022-12-31T02:21:19.865Z,1.05
2022-12-31T02:23:33.611Z,1.50
2022-12-31T02:25:55.622Z,1.52
2022-12-31T02:28:12.768Z,1.70
2022-12-31T02:30:18.304Z,1.45
2022-12-31T02:32:34.523Z,1.98
2022-12-31T02:34:56.772Z,1.40
2022-12-31T02:37:10.258Z,2.42
2022-12-31T02:39:17.653Z,1.13
2022-12-31T02:41:44.822Z,1.10
2022-12-31T02:43:46.790Z,1.35
2022-12-31T02:45:57.296Z,1.30
2022-12-31T02:48:04.744Z,0.80
2022-12-31T02:50:21.819Z,1.10
2022-12-31T02:52:23.343Z,1.08
2022-12-31T02:54:31.218Z,1.00
2022-12-31T02:56:38.068Z,0.73
2022-12-31T02:59:30.630Z,1.48
2022-12-31T03:02:00.473Z,0.60
2022-12-31T03:04:25.408Z,0.30
2022-12-31T03:06:32.761Z,0.77
2022-12-31T03:08:54.304Z,0.60
2022-12-31T03:10:58.574Z,0.98
2022-12-31T03:13:02.983Z,0.82
2022-12-31T03:15:19.756Z,1.17
2022-12-31T03:17:24.756Z,1.05
2022-12-31T03:19:45.000Z,1.08
2022-12-31T03:22:10.779Z,1.17
2022-12-31T03:24:33.641Z,1.25
2022-12-31T03:26:37.819Z,1.45
2022-12-31T03:28:40.422Z,1.80
2022-12-31T03:30:49.441Z,1.95
2022-12-31T03:32:51.504Z,2.05
2022-12-31T03:34:56.050Z,1.30
2022-12-31T03:36:57.670Z,1.15
2022-12-31T03:38:59.210Z,1.30
2022-12-31T03:41:00.779Z,1.00
2022-12-31T03:43:02.341Z,1.67
2022-12-31T03:45:07.262Z,1.88
2022-12-31T03:47:11.683Z,1.80
2022-12-31T03:51:23.043Z,3.38
2022-12-31T03:55:35.144Z,2.58
2022-12-31T03:57:40.115Z,2.92
2022-12-31T03:59:44.554Z,3.65
2022-12-31T04:01:49.157Z,4.00
2022-12-31T04:03:53.624Z,3.83
2022-12-31T04:05:58.321Z,3.33
2022-12-31T04:08:03.123Z,3.95
2022-12-31T04:10:08.852Z,4.72
2022-12-31T04:12:10.321Z,3.83
2022-12-31T04:14:11.858Z,5.30
2022-12-31T04:16:19.085Z,5.13
2022-12-31T04:20:30.444Z,5.93
2022-12-31T04:22:32.155Z,6.30
2022-12-31T04:24:33.742Z,6.55
2022-12-31T04:26:35.318Z,6.47
2022-12-31T04:28:36.867Z,6.38
2022-12-31T04:30:38.399Z,6.50
2022-12-31T04:32:40.134Z,5.45
2022-12-31T04:34:41.787Z,6.18
2022-12-31T04:36:49.243Z,6.00
2022-12-31T04:38:50.747Z,7.82
2022-12-31T04:41:17.138Z,6.43
2022-12-31T04:43:18.633Z,8.38
2022-12-31T04:45:20.227Z,6.53
2022-12-31T04:47:23.862Z,5.95
2022-12-31T04:49:31.873Z,5.75
2022-12-31T04:51:33.924Z,6.45
2022-12-31T04:53:38.360Z,6.95
2022-12-31T04:55:41.081Z,7.07
2022-12-31T04:57:42.563Z,5.47
2022-12-31T04:59:44.084Z,5.43
2022-12-31T05:01:48.422Z,6.75
2022-12-31T05:03:51.229Z,5.88
2022-12-31T05:05:53.113Z,4.78
2022-12-31T05:08:00.665Z,5.80
2022-12-31T05:10:13.788Z,5.65
2022-12-31T05:12:20.710Z,5.18
2022-12-31T05:14:31.163Z,5.43
2022-12-31T05:16:41.549Z,7.72
2022-12-31T05:18:51.439Z,5.38
2022-12-31T05:20:59.284Z,5.32
2022-12-31T05:23:09.785Z,5.55
2022-12-31T05:25:14.428Z,5.72
2022-12-31T05:27:18.248Z,6.95
2022-12-31T05:29:22.568Z,6.25
2022-12-31T05:31:33.266Z,6.80
2022-12-31T05:33:37.191Z,5.57
2022-12-31T05:35:42.366Z,7.05
2022-12-31T05:37:44.657Z,7.38
2022-12-31T05:39:48.457Z,6.25
2022-12-31T05:44:01.838Z,4.85
2022-12-31T05:46:09.294Z,6.15
2022-12-31T05:48:13.485Z,5.40
2022-12-31T05:50:24.265Z,4.85
2022-12-31T05:52:34.893Z,5.22
2022-12-31T05:54:42.785Z,6.60
2022-12-31T05:56:44.320Z,6.05
2022-12-31T05:58:45.831Z,5.45
2022-12-31T06:00:47.472Z,6.25
2022-12-31T06:02:54.734Z,6.63
2022-12-31T06:04:56.343Z,4.88
2022-12-31T06:06:57.830Z,6.28
2022-12-31T06:08:59.297Z,4.40
2022-12-31T06:11:00.767Z,6.22
2022-12-31T06:13:02.615Z,6.03
2022-12-31T06:15:10.278Z,4.65
2022-12-31T06:17:11.918Z,5.80
2022-12-31T06:19:13.353Z,4.93
2022-12-31T06:21:15.980Z,4.78
2022-12-31T06:23:23.505Z,5.10
2022-12-31T06:25:27.934Z,5.53
2022-12-31T06:27:29.549Z,6.22
2022-12-31T06:29:34.132Z,6.65
2022-12-31T06:31:35.833Z,7.32
2022-12-31T06:33:37.441Z,5.43
2022-12-31T06:35:38.964Z,8.18
2022-12-31T06:39:44.658Z,6.57
2022-12-31T06:41:49.125Z,5.80
2022-12-31T06:43:50.638Z,4.43
2022-12-31T06:46:01.770Z,5.53
2022-12-31T06:48:03.365Z,4.57
2022-12-31T06:50:11.134Z,5.18
2022-12-31T06:52:18.583Z,5.53
2022-12-31T06:54:26.079Z,5.47
2022-12-31T06:56:34.854Z,5.00
2022-12-31T06:58:37.153Z,5.05
2022-12-31T07:00:40.203Z,5.72
2022-12-31T07:02:41.859Z,6.28
2022-12-31T07:05:02.223Z,6.80
2022-12-31T07:07:21.168Z,5.70
2022-12-31T07:09:30.338Z,5.32
2022-12-31T07:11:46.824Z,6.90
2022-12-31T07:14:10.736Z,6.75
2022-12-31T07:16:30.559Z,6.20
2022-12-31T07:19:07.333Z,6.53
2022-12-31T07:21:17.122Z,7.40
2022-12-31T07:23:19.122Z,6.93
2022-12-31T07:25:22.015Z,7.80
2022-12-31T07:27:44.786Z,6.55
2022-12-31T07:29:58.574Z,6.22
2022-12-31T07:32:23.029Z,6.18
2022-12-31T07:34:36.210Z,6.80
2022-12-31T07:36:49.044Z,6.15
2022-12-31T07:38:56.509Z,6.80
2022-12-31T07:41:05.478Z,6.10
2022-12-31T07:43:19.761Z,7.43
2022-12-31T07:45:26.873Z,6.03
2022-12-31T07:47:29.213Z,6.32
2022-12-31T07:49:31.239Z,8.27
2022-12-31T07:51:32.861Z,6.05
2022-12-31T07:53:40.330Z,6.15
2022-12-31T07:57:55.595Z,8.50
2022-12-31T08:00:12.134Z,8.25
2022-12-31T08:02:35.253Z,7.80
2022-12-31T08:04:54.250Z,7.32
2022-12-31T08:07:15.363Z,7.38
2022-12-31T08:09:36.780Z,6.28
2022-12-31T08:11:49.598Z,6.93
2022-12-31T08:13:55.397Z,6.35
2022-12-31T08:16:15.604Z,9.88
2022-12-31T08:18:21.560Z,9.30
2022-12-31T08:20:26.077Z,7.68
2022-12-31T08:22:40.103Z,6.38
2022-12-31T08:25:25.193Z,6.55
2022-12-31T08:27:48.959Z,7.57
2022-12-31T08:30:11.487Z,6.05
2022-12-31T08:32:20.549Z,7.00
2022-12-31T08:34:25.561Z,6.40
2022-12-31T08:36:32.611Z,5.22
2022-12-31T08:38:43.349Z,6.18
2022-12-31T08:40:52.731Z,5.30
2022-12-31T08:43:12.428Z,5.22
2022-12-31T08:45:38.758Z,6.45
2022-12-31T08:47:59.783Z,5.47
2022-12-31T08:50:20.335Z,6.72
2022-12-31T08:52:28.691Z,5.30
2022-12-31T08:54:36.426Z,5.72
2022-12-31T08:57:05.091Z,4.15
2022-12-31T08:59:32.120Z,4.32
2022-12-31T09:01:39.879Z,4.72
2022-12-31T09:04:07.438Z,4.45
2022-12-31T09:08:10.694Z,5.10
2022-12-31T09:10:16.351Z,4.25
2022-12-31T09:12:37.091Z,3.63
2022-12-31T09:14:49.798Z,3.80
2022-12-31T09:16:53.931Z,5.22
2022-12-31T09:18:58.239Z,3.67
2022-12-31T09:20:59.799Z,3.65
2022-12-31T09:23:05.370Z,3.95
2022-12-31T09:25:13.532Z,3.83
2022-12-31T09:27:56.538Z,2.55
2022-12-31T09:30:04.110Z,3.15
2022-12-31T09:32:32.799Z,3.30
2022-12-31T09:34:44.163Z,3.28
2022-12-31T09:36:48.262Z,2.90
2022-12-31T09:38:56.283Z,4.32
2022-12-31T09:41:14.602Z,3.03
2022-12-31T09:43:21.940Z,3.47
2022-12-31T09:45:42.048Z,4.50
2022-12-31T09:47:55.281Z,3.20
2022-12-31T09:50:03.005Z,4.82
2022-12-31T09:52:23.008Z,4.25
2022-12-31T09:54:33.668Z,4.05
2022-12-31T09:57:01.424Z,3.97
2022-12-31T09:59:06.424Z,3.22
2022-12-31T10:01:21.541Z,3.83
2022-12-31T10:03:35.297Z,2.65
2022-12-31T10:05:42.691Z,2.65
2022-12-31T10:07:56.821Z,2.20
2022-12-31T10:10:04.369Z,3.28
2022-12-31T10:12:32.088Z,2.55
2022-12-31T10:14:33.693Z,3.05
2022-12-31T10:16:49.554Z,2.50
2022-12-31T10:19:00.452Z,2.70
2022-12-31T10:21:26.745Z,3.42
2022-12-31T10:23:43.385Z,3.03
2022-12-31T10:26:09.411Z,2.88
2022-12-31T10:28:29.345Z,3.15
2022-12-31T10:30:40.919Z,2.80
2022-12-31T10:33:07.721Z,2.40
2022-12-31T10:36:32.463Z,2.50
2022-12-31T10:38:06.508Z,2.63
2022-12-31T10:40:23.560Z,2.05
2022-12-31T10:42:33.810Z,1.38
2022-12-31T10:44:52.177Z,1.50
2022-12-31T10:47:08.373Z,1.25
2022-12-31T10:49:12.781Z,1.50
2022-12-31T10:53:32.883Z,0.60
2022-12-31T10:55:54.381Z,1.60
2022-12-31T10:58:06.679Z,1.00
2022-12-31T11:00:15.418Z,1.00
2022-12-31T11:02:29.038Z,1.65
2022-12-31T11:04:48.608Z,0.90
2022-12-31T11:07:14.799Z,0.98
2022-12-31T11:09:22.064Z,0.80
2022-12-31T11:11:55.804Z,0.80
2022-12-31T11:14:09.214Z,0.60
2022-12-31T11:16:29.820Z,0.90
2022-12-31T11:18:39.227Z,0.88
2022-12-31T11:20:46.481Z,1.30
2022-12-31T11:25:14.729Z,2.17
2022-12-31T11:27:48.965Z,2.53
2022-12-31T11:29:56.779Z,2.28
2022-12-31T11:32:28.353Z,4.82
2022-12-31T11:34:50.083Z,6.55
2022-12-31T11:37:12.555Z,4.57
2022-12-31T11:39:31.102Z,6.70
2022-12-31T11:41:47.919Z,5.72
2022-12-31T11:44:13.614Z,6.57
2022-12-31T11:46:26.728Z,6.22
2022-12-31T11:48:38.026Z,5.63
2022-12-31T11:50:52.535Z,5.60
2022-12-31T11:53:18.015Z,7.10
2022-12-31T11:55:44.122Z,6.82
2022-12-31T11:57:54.067Z,7.40
2022-12-31T12:00:02.282Z,5.85
2022-12-31T12:02:22.454Z,5.55
2022-12-31T12:04:30.489Z,7.55
2022-12-31T12:06:37.674Z,7.45
2022-12-31T12:08:46.144Z,6.32
2022-12-31T12:10:48.906Z,6.40
2022-12-31T12:12:51.552Z,5.22
2022-12-31T12:14:55.980Z,7.03
2022-12-31T12:17:04.264Z,8.00
2022-12-31T12:19:08.288Z,7.95
2022-12-31T12:21:14.524Z,7.38
2022-12-31T12:23:17.242Z,10.73
2022-12-31T12:25:20.830Z,11.18
2022-12-31T12:27:28.921Z,10.05
2022-12-31T12:29:36.605Z,8.82
2022-12-31T12:31:39.290Z,10.70
2022-12-31T12:33:42.569Z,11.63
2022-12-31T12:35:50.763Z,11.32
2022-12-31T12:38:13.616Z,9.35
2022-12-31T12:40:33.350Z,9.13
2022-12-31T12:42:36.008Z,10.70
2022-12-31T12:44:37.722Z,8.57
2022-12-31T12:46:48.756Z,9.93
2022-12-31T12:48:54.788Z,9.63
2022-12-31T12:50:56.346Z,9.48
2022-12-31T12:53:09.736Z,11.30
2022-12-31T12:55:27.214Z,10.95
2022-12-31T12:57:42.508Z,9.07
2022-12-31T13:00:01.887Z,8.38
2022-12-31T13:02:22.181Z,8.55
2022-12-31T13:04:34.594Z,9.52
2022-12-31T13:06:49.106Z,8.00
2022-12-31T13:08:59.747Z,9.43
2022-12-31T13:11:16.048Z,8.45
2022-12-31T13:13:25.798Z,9.68
2022-12-31T13:15:32.506Z,7.82
2022-12-31T13:17:39.703Z,9.45
2022-12-31T13:19:42.078Z,8.95
2022-12-31T13:22:25.141Z,9.48
2022-12-31T13:24:32.461Z,8.40
2022-12-31T13:26:41.195Z,8.80
2022-12-31T13:28:50.705Z,8.10
2022-12-31T13:31:06.246Z,9.05
2022-12-31T13:33:14.047Z,11.32
2022-12-31T13:35:24.609Z,8.80
2022-12-31T13:37:33.967Z,9.60
2022-12-31T13:39:40.725Z,9.60
2022-12-31T13:41:45.254Z,8.32
2022-12-31T13:44:16.826Z,9.23
2022-12-31T13:46:39.281Z,11.30
2022-12-31T13:48:44.749Z,10.73
2022-12-31T13:51:00.875Z,8.88
2022-12-31T13:53:20.048Z,9.18
2022-12-31T13:55:37.163Z,9.90
2022-12-31T13:57:47.989Z,7.65
2022-12-31T13:59:58.349Z,9.45
2022-12-31T14:02:18.988Z,10.25
2022-12-31T14:04:29.543Z,9.35
2022-12-31T14:06:37.216Z,10.05
2022-12-31T14:08:38.704Z,10.00
2022-12-31T14:10:49.123Z,10.43
2022-12-31T14:13:02.464Z,9.98
2022-12-31T14:15:12.863Z,9.27
2022-12-31T14:17:26.594Z,11.15
2022-12-31T14:19:33.297Z,10.83
2022-12-31T14:21:47.948Z,10.25
2022-12-31T14:23:58.001Z,11.60
2022-12-31T14:26:17.110Z,9.88
2022-12-31T14:28:47.089Z,8.35
2022-12-31T14:30:58.176Z,8.98
2022-12-31T14:33:22.015Z,9.13
2022-12-31T14:35:51.775Z,8.65
2022-12-31T14:37:55.493Z,9.20
2022-12-31T14:40:28.066Z,10.65
2022-12-31T14:42:35.039Z,9.10
2022-12-31T14:44:57.402Z,9.07
2022-12-31T14:47:16.126Z,9.30
2022-12-31T14:49:26.241Z,9.20
2022-12-31T14:51:36.654Z,9.68
2022-12-31T14:53:42.761Z,9.18
2022-12-31T14:55:57.802Z,9.35
2022-12-31T14:58:28.348Z,8.55
2022-12-31T15:00:34.060Z,9.00
2022-12-31T15:02:50.552Z,8.75
2022-12-31T15:05:04.410Z,7.60
2022-12-31T15:07:11.192Z,8.60
2022-12-31T15:09:33.931Z,9.18
2022-12-31T15:11:42.844Z,10.55
2022-12-31T15:13:47.421Z,9.27
2022-12-31T15:17:55.607Z,11.13
2022-12-31T15:20:17.472Z,8.60
2022-12-31T15:22:33.230Z,9.02
2022-12-31T15:24:34.839Z,9.45
2022-12-31T15:26:47.008Z,9.30
2022-12-31T15:28:56.554Z,11.43
2022-12-31T15:31:18.122Z,10.13
2022-12-31T15:33:29.777Z,10.82
2022-12-31T15:35:32.842Z,11.32
2022-12-31T15:37:35.815Z,11.57
2022-12-31T15:39:39.250Z,8.25
2022-12-31T15:42:10.227Z,9.40
2022-12-31T15:44:25.752Z,9.07
2022-12-31T15:46:30.538Z,10.27
2022-12-31T15:48:55.547Z,8.77
2022-12-31T15:51:01.180Z,10.50
2022-12-31T15:53:03.686Z,10.70
2022-12-31T15:55:08.518Z,9.20
2022-12-31T15:57:17.279Z,8.50
2022-12-31T15:59:26.696Z,9.77
2022-12-31T16:01:32.365Z,9.10
2022-12-31T16:03:34.470Z,8.32
2022-12-31T16:05:38.586Z,8.35
2022-12-31T16:07:41.282Z,8.50
2022-12-31T16:09:45.038Z,8.63
2022-12-31T16:11:46.602Z,9.15
2022-12-31T16:13:52.634Z,9.60
2022-12-31T16:16:02.066Z,8.82
2022-12-31T16:18:10.135Z,7.50
2022-12-31T16:20:25.110Z,7.53
2022-12-31T16:22:28.181Z,6.43
2022-12-31T16:24:35.237Z,6.63
2022-12-31T16:26:49.828Z,9.40
2022-12-31T16:29:00.531Z,8.38
2022-12-31T16:31:13.667Z,7.50
2022-12-31T16:33:15.789Z,8.40
2022-12-31T16:35:25.271Z,8.27
2022-12-31T16:37:28.060Z,8.05
2022-12-31T16:39:39.681Z,9.25
2022-12-31T16:41:47.225Z,7.30
2022-12-31T16:43:55.165Z,8.30
2022-12-31T16:46:17.372Z,6.85
2022-12-31T16:48:20.054Z,9.45
2022-12-31T16:50:23.095Z,9.25
2022-12-31T16:52:35.981Z,7.57
2022-12-31T16:54:45.010Z,5.93
2022-12-31T16:56:48.831Z,7.88
2022-12-31T16:58:53.009Z,9.02
2022-12-31T17:00:55.790Z,7.80
2022-12-31T17:03:15.568Z,8.40
2022-12-31T17:05:24.139Z,10.35
2022-12-31T17:07:33.023Z,9.18
2022-12-31T17:09:37.849Z,8.65
2022-12-31T17:11:43.690Z,9.90
2022-12-31T17:13:53.179Z,8.85
2022-12-31T17:16:01.333Z,8.27
2022-12-31T17:18:03.209Z,7.45
2022-12-31T17:20:20.007Z,9.63
2022-12-31T17:22:36.449Z,8.77
2022-12-31T17:24:38.700Z,7.60
2022-12-31T17:26:40.541Z,7.93
2022-12-31T17:28:47.453Z,6.90
2022-12-31T17:30:59.249Z,9.43
2022-12-31T17:33:26.395Z,7.15
2022-12-31T17:35:49.791Z,7.57
2022-12-31T17:37:53.400Z,8.02
2022-12-31T17:40:40.974Z,7.10
2022-12-31T17:42:35.893Z,7.88
2022-12-31T17:44:44.676Z,9.38
2022-12-31T17:46:54.739Z,8.85
2022-12-31T17:48:59.324Z,8.73
2022-12-31T17:51:05.056Z,9.63
2022-12-31T17:53:15.856Z,10.07
2022-12-31T17:55:20.697Z,9.43
2022-12-31T17:57:30.658Z,7.45
2022-12-31T17:59:40.904Z,9.48
2022-12-31T18:01:50.486Z,8.10
2022-12-31T18:04:01.084Z,9.52
2022-12-31T18:06:16.578Z,9.45
2022-12-31T18:08:28.339Z,9.48
2022-12-31T18:10:39.360Z,8.77
2022-12-31T18:12:44.789Z,9.60
2022-12-31T18:14:46.691Z,10.00
2022-12-31T18:16:51.015Z,9.73
2022-12-31T18:18:52.509Z,9.93
2022-12-31T18:22:58.157Z,13.18
2022-12-31T18:24:59.672Z,11.95
2022-12-31T18:27:01.136Z,11.73
2022-12-31T18:29:16.024Z,11.13
2022-12-31T18:31:28.215Z,9.65
2022-12-31T18:33:32.753Z,9.10
2022-12-31T18:36:07.073Z,11.50
2022-12-31T18:38:01.603Z,10.15
2022-12-31T18:40:10.146Z,10.55
2022-12-31T18:42:15.328Z,10.93
2022-12-31T18:44:17.081Z,10.73
2022-12-31T18:46:20.177Z,11.98
2022-12-31T18:48:27.635Z,10.98
2022-12-31T18:50:35.589Z,9.55
2022-12-31T18:52:38.262Z,9.70
2022-12-31T18:54:40.382Z,11.07
2022-12-31T18:56:48.342Z,10.93
2022-12-31T18:58:52.043Z,10.20
2022-12-31T19:00:54.276Z,10.05
2022-12-31T19:03:01.970Z,9.98
2022-12-31T19:05:13.657Z,9.23
2022-12-31T19:07:21.382Z,9.77
2022-12-31T19:09:44.835Z,9.43
2022-12-31T19:11:44.910Z,10.63
2022-12-31T19:13:46.534Z,8.85
2022-12-31T19:15:55.654Z,9.10
2022-12-31T19:18:09.688Z,9.82
2022-12-31T19:20:11.202Z,8.32
2022-12-31T19:22:15.848Z,7.50
2022-12-31T19:24:27.388Z,7.75
2022-12-31T19:26:29.957Z,7.57
2022-12-31T19:28:31.452Z,6.07
2022-12-31T19:30:39.286Z,6.75
2022-12-31T19:32:40.977Z,7.00
2022-12-31T19:34:42.586Z,7.22
2022-12-31T19:36:49.858Z,7.57
2022-12-31T19:38:57.287Z,5.40
2022-12-31T19:41:05.215Z,6.00
2022-12-31T19:43:09.454Z,5.57
2022-12-31T19:47:13.178Z,6.85
2022-12-31T19:49:17.577Z,5.50
2022-12-31T19:51:20.206Z,5.72
2022-12-31T19:53:28.164Z,5.03
2022-12-31T19:55:35.658Z,6.00
2022-12-31T19:57:43.392Z,5.38
2022-12-31T19:59:44.935Z,5.10
2022-12-31T20:01:46.599Z,5.63
2022-12-31T20:03:48.418Z,4.85
2022-12-31T20:06:07.078Z,4.70
2022-12-31T20:08:08.682Z,3.28
2022-12-31T20:10:10.987Z,3.85
2022-12-31T20:12:12.496Z,5.28
2022-12-31T20:14:19.670Z,4.75
2022-12-31T20:18:25.470Z,3.83
2022-12-31T20:20:29.217Z,4.43
2022-12-31T20:22:30.784Z,3.80
2022-12-31T20:24:32.340Z,4.28
2022-12-31T20:28:43.733Z,3.67
2022-12-31T20:30:51.225Z,3.08
2022-12-31T20:32:52.758Z,3.10
2022-12-31T20:35:00.093Z,3.83
2022-12-31T20:37:07.494Z,4.22
2022-12-31T20:39:23.214Z,4.57
2022-12-31T20:41:37.699Z,3.63
2022-12-31T20:44:10.138Z,3.25
2022-12-31T20:46:39.076Z,2.97
2022-12-31T20:49:05.058Z,2.55
2022-12-31T20:51:35.801Z,2.45
2022-12-31T20:53:53.568Z,4.10
2022-12-31T20:56:14.767Z,4.22
2022-12-31T20:58:32.819Z,4.00
2022-12-31T21:01:00.202Z,4.43
2022-12-31T21:03:36.870Z,5.68
2022-12-31T21:05:56.819Z,4.18
2022-12-31T21:08:16.241Z,3.10
2022-12-31T21:10:40.723Z,3.95
2022-12-31T21:13:01.321Z,2.95
2022-12-31T21:15:19.629Z,2.38
2022-12-31T21:17:29.894Z,2.67
2022-12-31T21:19:31.462Z,2.80
2022-12-31T21:21:33.807Z,2.55
2022-12-31T21:23:38.655Z,3.35
2022-12-31T21:25:46.072Z,1.83
2022-12-31T21:27:47.603Z,2.92
2022-12-31T21:30:17.145Z,2.10
2022-12-31T21:32:10.620Z,2.63
2022-12-31T21:34:12.236Z,2.67
2022-12-31T21:36:16.569Z,2.58
2022-12-31T21:40:22.134Z,2.40
2022-12-31T21:42:26.835Z,2.92
2022-12-31T21:44:28.572Z,2.35
2022-12-31T21:46:36.306Z,2.83
2022-12-31T21:48:41.105Z,2.40
2022-12-31T21:50:42.990Z,2.00
2022-12-31T21:52:44.577Z,2.33
2022-12-31T21:55:04.845Z,2.97
2022-12-31T21:57:08.541Z,2.10
2022-12-31T21:59:29.029Z,3.75
2022-12-31T22:01:49.493Z,3.60
2022-12-31T22:03:54.307Z,2.95
2022-12-31T22:06:09.057Z,2.53
2022-12-31T22:10:14.733Z,3.67
2022-12-31T22:12:16.210Z,4.10
2022-12-31T22:14:17.696Z,1.77
2022-12-31T22:16:20.357Z,2.55
2022-12-31T22:18:24.687Z,2.25
2022-12-31T22:22:30.774Z,2.20
2022-12-31T22:24:34.947Z,2.58
2022-12-31T22:26:38.304Z,2.17
2022-12-31T22:28:42.981Z,2.95
2022-12-31T22:30:48.047Z,2.28
2022-12-31T22:32:52.666Z,5.20
2022-12-31T22:35:03.121Z,2.28
2022-12-31T22:37:27.673Z,2.30
2022-12-31T22:39:43.861Z,2.10
2022-12-31T22:41:48.877Z,2.50
2022-12-31T22:43:57.207Z,2.65
2022-12-31T22:46:15.195Z,2.72
2022-12-31T22:48:19.355Z,2.60
2022-12-31T22:50:23.863Z,2.42
2022-12-31T22:52:31.463Z,2.60
2022-12-31T22:54:33.009Z,2.17
2022-12-31T22:58:38.567Z,3.65
2022-12-31T23:02:44.464Z,2.15
2022-12-31T23:04:48.930Z,4.00
2022-12-31T23:06:53.152Z,1.55
2022-12-31T23:11:18.006Z,1.83
2022-12-31T23:13:38.495Z,2.20
2022-12-31T23:16:03.163Z,2.40
2022-12-31T23:18:23.565Z,2.33
2022-12-31T23:20:49.472Z,1.48
2022-12-31T23:23:09.699Z,1.90
2022-12-31T23:25:14.137Z,2.03
2022-12-31T23:27:15.621Z,2.03
2022-12-31T23:29:20.088Z,1.75
2022-12-31T23:31:28.662Z,1.83
2022-12-31T23:33:33.162Z,2.55
2022-12-31T23:35:34.572Z,2.22
2022-12-31T23:37:41.882Z,1.60
2022-12-31T23:39:43.294Z,3.03
2022-12-31T23:41:44.770Z,1.95
2022-12-31T23:43:48.642Z,2.33
2022-12-31T23:45:53.408Z,2.47
2022-12-31T23:47:58.484Z,3.00
2022-12-31T23:50:03.566Z,2.45
2022-12-31T23:52:07.967Z,2.45
2022-12-31T23:54:16.003Z,1.80
2022-12-31T23:56:23.598Z,3.17
2022-12-31T23:58:25.492Z,2.47
